KPSK Airport Information

Runway Information
Runway 06 Length 6201 ft width 150 ft
Elevation 2105 ft Threshold 0 ft Heading 52
Runway 24 Length 6201 ft Width 150 ft
Elevation 2073 ft Threshold 0 ft Heading 232
Airport Frequencies
Type A/D Name ROANOKE AP Frequency 126 MHZ
Type AWOS Name AWOS 3 Frequency 127.375 MHZ
Type CLD Name CLNC DEL Frequency 121.7 MHZ
Type RDO Name LEESBURG R Frequency 122.3 MHZ
Type UNIC Name CTAF/UNICO Frequency 122.7 MHZ
Airport Navaids
Airport Weather Information & NOTAM
ADDS - METARS form results

(0102 UTC 23 October 2021)
Data provider http://aviationweather.gov/metar/data/
 
METAR text: KPSK 230035Z AUTO 00000KT 10SM SCT046 10/07 A3004 RMK AO2 T00980066
Conditions at: KPSK (DUBLIN/NEW RIV , VA, US) observed 0035 UTC 23 October 2021
Temperature: 9.8°C (50°F)
Dewpoint: 6.6°C (44°F) [RH = 80%]
Pressure (altimeter): 30.04 inches Hg (1017.4 mb)
Winds: calm
Visibility: 10 or more miles (16+ km)
Ceiling: at least 12,000 feet AGL
Clouds: scattered clouds at 4600 feet AGL
Weather: automated observation with no human augmentation;
there may or may not be significant weather present at this time